createdAt,value
2023-01-19T00:01:57.972Z,15.53
2023-01-19T00:04:27.881Z,13.60
2023-01-19T00:06:59.407Z,12.90
2023-01-19T00:09:38.397Z,16.20
2023-01-19T00:12:16.277Z,16.10
2023-01-19T00:14:46.513Z,18.87
2023-01-19T00:17:18.582Z,16.97
2023-01-19T00:19:49.729Z,14.97
2023-01-19T00:22:19.716Z,16.67
2023-01-19T00:24:55.270Z,13.93
2023-01-19T00:27:25.129Z,17.50
2023-01-19T00:29:57.061Z,16.87
2023-01-19T00:32:31.910Z,14.67
2023-01-19T00:35:01.743Z,18.83
2023-01-19T00:37:31.868Z,15.73
2023-01-19T00:40:06.941Z,19.20
2023-01-19T00:42:52.034Z,14.90
2023-01-19T00:45:24.969Z,15.73
2023-01-19T00:47:57.369Z,9.30
2023-01-19T00:50:31.131Z,17.53
2023-01-19T00:53:03.938Z,13.83
2023-01-19T00:55:36.742Z,14.53
2023-01-19T00:58:07.341Z,13.70
2023-01-19T01:00:45.094Z,11.13
2023-01-19T01:03:17.116Z,15.57
2023-01-19T01:05:46.952Z,16.30
2023-01-19T01:08:16.692Z,14.27
2023-01-19T01:10:49.146Z,13.37
2023-01-19T01:13:29.307Z,15.17
2023-01-19T01:16:02.580Z,13.20
2023-01-19T01:18:32.517Z,15.90
2023-01-19T01:21:05.302Z,13.93
2023-01-19T01:23:35.502Z,15.90
2023-01-19T01:26:08.592Z,15.47
2023-01-19T01:28:38.285Z,13.60
2023-01-19T01:31:09.313Z,13.13
2023-01-19T01:33:41.177Z,12.70
2023-01-19T01:36:14.476Z,14.73
2023-01-19T01:38:45.056Z,11.53
2023-01-19T01:41:21.132Z,17.30
2023-01-19T01:43:56.662Z,14.27
2023-01-19T01:46:27.211Z,15.40
2023-01-19T01:49:04.812Z,14.50
2023-01-19T01:51:37.994Z,11.70
2023-01-19T01:54:16.396Z,15.30
2023-01-19T01:56:52.085Z,13.43
2023-01-19T01:59:29.448Z,19.60
2023-01-19T02:02:15.587Z,18.40
2023-01-19T02:04:57.975Z,13.47
2023-01-19T02:07:48.768Z,14.87
2023-01-19T02:10:39.299Z,15.53
2023-01-19T02:13:20.697Z,15.50
2023-01-19T02:15:52.798Z,16.37
2023-01-19T02:18:25.389Z,15.90
2023-01-19T02:21:05.672Z,13.97
2023-01-19T02:23:53.614Z,18.80
2023-01-19T02:26:28.075Z,12.60
2023-01-19T02:29:02.091Z,16.43
2023-01-19T02:31:34.017Z,16.50
2023-01-19T02:34:05.611Z,16.00
2023-01-19T02:36:42.295Z,13.40
2023-01-19T02:39:19.660Z,10.33
2023-01-19T02:41:54.338Z,15.90
2023-01-19T02:44:28.542Z,13.60
2023-01-19T02:46:58.394Z,9.83
2023-01-19T02:49:34.138Z,14.00
2023-01-19T02:52:04.418Z,14.87
2023-01-19T02:54:54.320Z,12.83
2023-01-19T02:57:45.088Z,12.17
2023-01-19T03:00:25.112Z,16.90
2023-01-19T03:03:07.308Z,14.30
2023-01-19T03:05:53.738Z,17.33
2023-01-19T03:08:34.081Z,13.70
2023-01-19T03:11:09.184Z,12.43
2023-01-19T03:13:48.027Z,19.20
2023-01-19T03:16:24.216Z,13.97
2023-01-19T03:18:57.646Z,15.07
2023-01-19T03:21:36.336Z,17.03
2023-01-19T03:24:11.219Z,16.20
2023-01-19T03:26:47.398Z,15.50
2023-01-19T03:29:18.559Z,14.70
2023-01-19T03:31:50.847Z,15.37
2023-01-19T03:34:24.686Z,18.17
2023-01-19T03:36:57.556Z,14.23
2023-01-19T03:39:31.963Z,13.43
2023-01-19T03:42:09.353Z,15.07
2023-01-19T03:44:46.072Z,13.40
2023-01-19T03:47:23.288Z,12.97
2023-01-19T03:49:56.145Z,17.57
2023-01-19T03:52:33.681Z,15.37
2023-01-19T03:55:04.530Z,15.80
2023-01-19T03:57:36.887Z,15.57
2023-01-19T04:00:07.937Z,11.07
2023-01-19T04:02:37.835Z,16.93
2023-01-19T04:05:10.582Z,16.13
2023-01-19T04:07:40.381Z,19.70
2023-01-19T04:10:13.040Z,18.90
2023-01-19T04:12:53.358Z,20.17
2023-01-19T04:15:23.128Z,19.20
2023-01-19T04:17:55.074Z,23.97
2023-01-19T04:20:24.947Z,14.20
2023-01-19T04:22:55.065Z,15.63
2023-01-19T04:25:24.753Z,12.80
2023-01-19T04:27:58.418Z,12.33
2023-01-19T04:30:28.742Z,18.47
2023-01-19T04:32:58.976Z,10.93
2023-01-19T04:35:28.888Z,13.67
2023-01-19T04:37:58.641Z,17.70
2023-01-19T04:40:28.314Z,17.90
2023-01-19T04:43:01.062Z,13.43
2023-01-19T04:45:31.075Z,15.97
2023-01-19T04:48:00.814Z,15.10
2023-01-19T04:50:30.723Z,20.77
2023-01-19T04:53:00.885Z,15.13
2023-01-19T04:55:30.994Z,11.07
2023-01-19T04:58:03.820Z,20.20
2023-01-19T05:00:33.897Z,15.47
2023-01-19T05:03:05.032Z,16.53
2023-01-19T05:05:35.829Z,14.47
2023-01-19T05:08:05.748Z,13.57
2023-01-19T05:10:36.658Z,13.83
2023-01-19T05:13:08.911Z,11.63
2023-01-19T05:15:39.190Z,14.37
2023-01-19T05:18:09.147Z,12.43
2023-01-19T05:20:39.669Z,18.00
2023-01-19T05:23:09.685Z,14.33
2023-01-19T05:25:39.375Z,13.80
2023-01-19T05:28:11.963Z,11.80
2023-01-19T05:30:41.790Z,12.97
2023-01-19T05:33:11.552Z,13.00
2023-01-19T05:35:41.338Z,13.77
2023-01-19T05:38:11.314Z,12.43
2023-01-19T05:40:41.247Z,10.97
2023-01-19T05:43:13.666Z,13.10
2023-01-19T05:45:44.046Z,14.67
2023-01-19T05:48:14.081Z,11.23
2023-01-19T05:50:44.016Z,13.07
2023-01-19T05:53:13.706Z,10.83
2023-01-19T05:55:43.418Z,13.77
2023-01-19T05:58:15.811Z,19.00
2023-01-19T06:00:45.821Z,13.10
2023-01-19T06:03:15.667Z,9.10
2023-01-19T06:05:45.430Z,15.50
2023-01-19T06:08:15.199Z,13.33
2023-01-19T06:10:45.185Z,11.33
2023-01-19T06:13:17.670Z,11.77
2023-01-19T06:15:48.676Z,8.37
2023-01-19T06:18:18.594Z,10.63
2023-01-19T06:20:49.597Z,10.43
2023-01-19T06:23:21.095Z,11.23
2023-01-19T06:25:53.025Z,14.83
2023-01-19T06:28:25.682Z,12.03
2023-01-19T06:30:57.410Z,9.70
2023-01-19T06:33:28.111Z,11.60
2023-01-19T06:35:59.018Z,21.00
2023-01-19T06:38:29.034Z,11.87
2023-01-19T06:41:03.418Z,13.63
2023-01-19T06:43:36.117Z,10.80
2023-01-19T06:46:06.001Z,12.97
2023-01-19T06:48:36.030Z,14.33
2023-01-19T06:51:06.071Z,7.33
2023-01-19T06:53:36.218Z,5.90
2023-01-19T06:56:06.832Z,7.17
2023-01-19T06:58:39.469Z,7.37
2023-01-19T07:01:10.033Z,7.57
2023-01-19T07:03:40.220Z,12.20
2023-01-19T07:06:10.474Z,10.87
2023-01-19T07:08:40.654Z,8.77
2023-01-19T07:11:26.218Z,7.40
2023-01-19T07:14:04.145Z,10.43
2023-01-19T07:16:33.958Z,9.33
2023-01-19T07:19:03.766Z,12.87
2023-01-19T07:21:35.541Z,11.80
2023-01-19T07:24:05.276Z,7.80
2023-01-19T07:26:35.105Z,9.07
2023-01-19T07:29:07.448Z,9.30
2023-01-19T07:31:37.400Z,9.67
2023-01-19T07:34:07.540Z,10.63
2023-01-19T07:36:37.398Z,7.60
2023-01-19T07:39:07.720Z,13.17
2023-01-19T07:41:37.605Z,8.60
2023-01-19T07:44:10.679Z,9.67
2023-01-19T07:46:40.755Z,10.40
2023-01-19T07:49:11.682Z,11.57
2023-01-19T07:51:41.449Z,12.93
2023-01-19T07:54:11.341Z,11.40
2023-01-19T07:56:41.178Z,11.43
2023-01-19T07:59:13.888Z,9.47
2023-01-19T08:01:43.958Z,9.43
2023-01-19T08:04:13.905Z,12.63
2023-01-19T08:06:47.559Z,9.93
2023-01-19T08:09:17.953Z,13.23
2023-01-19T08:11:48.134Z,12.30
2023-01-19T08:14:20.794Z,14.97
2023-01-19T08:16:50.774Z,11.90
2023-01-19T08:19:21.155Z,23.27
2023-01-19T08:21:51.192Z,9.67
2023-01-19T08:24:23.108Z,9.10
2023-01-19T08:26:53.269Z,7.70
2023-01-19T08:29:25.678Z,15.70
2023-01-19T08:31:57.572Z,12.17
2023-01-19T08:34:27.593Z,13.77
2023-01-19T08:36:57.364Z,10.33
2023-01-19T08:39:27.609Z,11.57
2023-01-19T08:42:00.540Z,10.10
2023-01-19T08:44:32.945Z,11.93
2023-01-19T08:47:05.944Z,10.37
2023-01-19T08:49:37.002Z,13.20
2023-01-19T08:52:06.933Z,12.40
2023-01-19T08:54:37.261Z,11.83
2023-01-19T08:57:07.061Z,13.90
2023-01-19T08:59:39.455Z,14.03
2023-01-19T09:02:10.032Z,20.73
2023-01-19T09:04:39.976Z,18.10
2023-01-19T09:07:09.751Z,16.33
2023-01-19T09:09:43.528Z,15.50
2023-01-19T09:12:13.318Z,12.80
2023-01-19T09:14:45.786Z,15.20
2023-01-19T09:17:15.668Z,10.60
2023-01-19T09:19:45.452Z,13.23
2023-01-19T09:22:15.432Z,16.87
2023-01-19T09:24:45.191Z,18.20
2023-01-19T09:27:16.004Z,13.23
2023-01-19T09:29:52.553Z,14.60
2023-01-19T09:32:23.041Z,15.40
2023-01-19T09:34:54.020Z,14.73
2023-01-19T09:37:24.115Z,18.53
2023-01-19T09:39:53.886Z,19.73
2023-01-19T09:42:30.344Z,20.53
2023-01-19T09:45:05.723Z,14.93
2023-01-19T09:47:37.991Z,16.70
2023-01-19T09:50:13.502Z,19.07
2023-01-19T09:52:46.651Z,20.30
2023-01-19T09:55:24.604Z,20.17
2023-01-19T09:57:54.745Z,18.30
2023-01-19T10:00:29.640Z,20.07
2023-01-19T10:03:07.317Z,12.30
2023-01-19T10:05:44.928Z,26.70
2023-01-19T10:08:22.257Z,17.40
2023-01-19T10:10:56.656Z,19.30
2023-01-19T10:13:36.528Z,19.17
2023-01-19T10:16:20.091Z,22.87
2023-01-19T10:18:51.872Z,22.40
2023-01-19T10:21:26.298Z,29.23
2023-01-19T10:24:00.046Z,22.97
2023-01-19T10:26:36.452Z,20.43
2023-01-19T10:29:11.609Z,22.77
2023-01-19T10:31:49.646Z,16.23
2023-01-19T10:34:23.549Z,31.20
2023-01-19T10:37:00.075Z,15.97
2023-01-19T10:39:29.947Z,22.67
2023-01-19T10:42:03.689Z,20.10
2023-01-19T10:44:40.078Z,24.80
2023-01-19T10:47:19.334Z,24.90
2023-01-19T10:49:50.791Z,25.83
2023-01-19T10:52:30.109Z,23.87
2023-01-19T10:55:04.296Z,24.73
2023-01-19T10:57:40.047Z,27.20
2023-01-19T11:00:37.997Z,29.97
2023-01-19T11:03:28.851Z,25.73
2023-01-19T11:06:21.621Z,26.37
2023-01-19T11:08:54.881Z,31.97
2023-01-19T11:11:29.764Z,29.00
2023-01-19T11:14:12.961Z,27.73
2023-01-19T11:16:43.399Z,29.03
2023-01-19T11:19:27.777Z,33.77
2023-01-19T11:22:12.966Z,30.87
2023-01-19T11:24:43.277Z,28.93
2023-01-19T11:27:14.617Z,30.47
2023-01-19T11:29:51.095Z,31.00
2023-01-19T11:32:26.928Z,27.03
2023-01-19T11:35:00.099Z,27.20
2023-01-19T11:37:34.813Z,33.23
2023-01-19T11:40:12.554Z,27.13
2023-01-19T11:42:44.995Z,36.23
2023-01-19T11:45:20.571Z,28.53
2023-01-19T11:47:52.939Z,29.07
2023-01-19T11:50:32.076Z,36.23
2023-01-19T11:53:08.533Z,27.40
2023-01-19T11:55:43.189Z,32.60
2023-01-19T11:58:17.067Z,33.20
2023-01-19T12:00:51.438Z,36.80
2023-01-19T12:03:26.799Z,27.37
2023-01-19T12:06:06.292Z,38.53
2023-01-19T12:08:39.869Z,24.03
2023-01-19T12:11:13.596Z,33.43
2023-01-19T12:13:47.374Z,25.77
2023-01-19T12:16:24.044Z,19.30
2023-01-19T12:19:00.152Z,29.23
2023-01-19T12:21:32.528Z,35.80
2023-01-19T12:24:16.420Z,35.60
2023-01-19T12:26:56.486Z,30.20
2023-01-19T12:29:30.441Z,41.97
2023-01-19T12:32:22.535Z,31.17
2023-01-19T12:34:53.107Z,35.37
2023-01-19T12:37:43.024Z,29.93
2023-01-19T12:40:35.439Z,26.57
2023-01-19T12:43:09.662Z,26.00
2023-01-19T12:45:40.732Z,27.67
2023-01-19T12:48:27.293Z,32.27
2023-01-19T12:50:57.430Z,29.30
2023-01-19T12:53:31.006Z,35.43
2023-01-19T12:56:02.882Z,32.40
2023-01-19T12:58:34.709Z,30.27
2023-01-19T13:01:19.956Z,26.23
2023-01-19T13:04:02.339Z,28.97
2023-01-19T13:07:05.896Z,22.40
2023-01-19T13:09:43.372Z,31.43
2023-01-19T13:12:29.054Z,38.00
2023-01-19T13:15:28.831Z,35.57
2023-01-19T13:17:59.620Z,27.47
2023-01-19T13:20:32.396Z,29.33
2023-01-19T13:23:21.896Z,25.70
2023-01-19T13:25:57.645Z,24.37
2023-01-19T13:28:37.910Z,27.73
2023-01-19T13:31:10.142Z,22.23
2023-01-19T13:33:51.140Z,26.33
2023-01-19T13:36:30.808Z,24.00
2023-01-19T13:39:03.593Z,27.33
2023-01-19T13:41:40.406Z,23.43
2023-01-19T13:44:15.981Z,27.93
2023-01-19T13:46:49.738Z,25.43
2023-01-19T13:49:29.380Z,20.27
2023-01-19T13:52:18.664Z,26.13
2023-01-19T13:54:53.252Z,30.67
2023-01-19T13:57:33.126Z,21.07
2023-01-19T14:00:18.997Z,26.37
2023-01-19T14:03:00.771Z,23.73
2023-01-19T14:05:34.387Z,28.43
2023-01-19T14:08:07.044Z,26.13
2023-01-19T14:10:38.009Z,20.70
2023-01-19T14:13:18.928Z,25.23
2023-01-19T14:15:50.578Z,46.47
2023-01-19T14:18:30.200Z,30.23
2023-01-19T14:21:06.266Z,20.50
2023-01-19T14:23:43.145Z,24.10
2023-01-19T14:26:45.101Z,21.13
2023-01-19T14:29:28.945Z,20.23
2023-01-19T14:32:17.577Z,24.00
2023-01-19T14:34:53.901Z,24.53
2023-01-19T14:37:28.914Z,19.33
2023-01-19T14:40:04.856Z,18.40
2023-01-19T14:42:40.340Z,19.57
2023-01-19T14:45:23.147Z,24.10
2023-01-19T14:47:59.857Z,24.83
2023-01-19T14:50:33.188Z,18.77
2023-01-19T14:53:06.481Z,30.83
2023-01-19T14:55:39.448Z,20.33
2023-01-19T14:58:13.955Z,23.17
2023-01-19T15:00:47.431Z,36.27
2023-01-19T15:03:17.651Z,26.67
2023-01-19T15:05:49.825Z,23.30
2023-01-19T15:08:22.699Z,23.90
2023-01-19T15:10:52.736Z,24.60
2023-01-19T15:13:25.689Z,18.83
2023-01-19T15:15:58.527Z,18.17
2023-01-19T15:18:30.355Z,20.73
2023-01-19T15:21:03.100Z,21.03
2023-01-19T15:23:36.701Z,21.63
2023-01-19T15:26:08.172Z,19.77
2023-01-19T15:28:38.405Z,21.30
2023-01-19T15:31:16.657Z,19.97
2023-01-19T15:33:47.154Z,19.67
2023-01-19T15:36:18.393Z,15.53
2023-01-19T15:38:50.432Z,21.23
2023-01-19T15:41:25.554Z,19.57
2023-01-19T15:43:55.744Z,19.50
2023-01-19T15:46:28.962Z,16.93
2023-01-19T15:49:02.169Z,18.20
2023-01-19T15:51:32.935Z,24.57
2023-01-19T15:54:02.849Z,20.23
2023-01-19T15:56:34.620Z,16.13
2023-01-19T15:59:05.464Z,19.47
2023-01-19T16:01:38.244Z,21.53
2023-01-19T16:04:11.184Z,16.57
2023-01-19T16:06:41.624Z,13.80
2023-01-19T16:09:17.067Z,14.87
2023-01-19T16:11:47.413Z,14.53
2023-01-19T16:14:17.639Z,16.50
2023-01-19T16:16:50.517Z,23.50
2023-01-19T16:19:20.408Z,18.13
2023-01-19T16:21:50.126Z,13.67
2023-01-19T16:24:19.885Z,17.73
2023-01-19T16:26:49.610Z,20.10
2023-01-19T16:29:19.440Z,17.33
2023-01-19T16:31:52.303Z,22.73
2023-01-19T16:34:23.602Z,10.20
2023-01-19T16:36:53.494Z,20.53
2023-01-19T16:39:23.598Z,26.57
2023-01-19T16:41:53.380Z,28.00
2023-01-19T16:44:23.144Z,20.70
2023-01-19T16:46:55.704Z,21.53
2023-01-19T16:49:28.538Z,22.83
2023-01-19T16:51:59.511Z,30.50
2023-01-19T16:54:31.269Z,20.93
2023-01-19T16:57:01.949Z,26.17
2023-01-19T16:59:31.888Z,30.60
2023-01-19T17:02:04.542Z,22.70
2023-01-19T17:04:34.387Z,24.03
2023-01-19T17:07:04.398Z,22.73
2023-01-19T17:09:34.542Z,22.83
2023-01-19T17:12:04.333Z,22.23
2023-01-19T17:14:34.231Z,24.87
2023-01-19T17:17:09.744Z,25.80
2023-01-19T17:19:40.270Z,26.17
2023-01-19T17:22:10.019Z,23.50
2023-01-19T17:24:42.621Z,22.63
2023-01-19T17:27:13.415Z,23.77
2023-01-19T17:29:43.286Z,25.33
2023-01-19T17:32:15.600Z,24.63
2023-01-19T17:34:46.787Z,22.20
2023-01-19T17:37:16.624Z,30.73
2023-01-19T17:39:46.404Z,23.13
2023-01-19T17:42:16.198Z,27.37
2023-01-19T17:44:45.951Z,22.67
2023-01-19T17:47:24.750Z,23.43
2023-01-19T17:49:55.188Z,26.60
2023-01-19T17:52:25.102Z,26.40
2023-01-19T17:54:55.013Z,42.97
2023-01-19T17:57:24.822Z,29.43
2023-01-19T17:59:54.774Z,33.67
2023-01-19T18:02:27.345Z,29.20
2023-01-19T18:04:59.369Z,34.70
2023-01-19T18:07:29.173Z,27.13
2023-01-19T18:10:01.046Z,33.67
2023-01-19T18:12:31.589Z,28.07
2023-01-19T18:15:01.460Z,28.80
2023-01-19T18:17:34.128Z,29.07
2023-01-19T18:20:04.837Z,27.73
2023-01-19T18:22:35.304Z,31.37
2023-01-19T18:25:05.264Z,34.90
2023-01-19T18:27:35.357Z,43.63
2023-01-19T18:30:05.150Z,30.47
2023-01-19T18:32:38.664Z,31.70
2023-01-19T18:35:11.142Z,33.33
2023-01-19T18:37:41.028Z,30.43
2023-01-19T18:40:12.830Z,34.23
2023-01-19T18:42:43.544Z,37.90
2023-01-19T18:45:14.353Z,48.60
2023-01-19T18:47:47.104Z,45.83
2023-01-19T18:50:17.194Z,36.10
2023-01-19T18:52:51.625Z,49.80
2023-01-19T18:55:21.618Z,49.77
2023-01-19T18:57:53.228Z,36.13
2023-01-19T19:00:23.931Z,31.87
2023-01-19T19:02:57.888Z,40.20
2023-01-19T19:05:28.128Z,32.77
2023-01-19T19:07:58.125Z,41.67
2023-01-19T19:10:28.135Z,35.73
2023-01-19T19:12:58.218Z,24.30
2023-01-19T19:15:28.399Z,28.60
2023-01-19T19:18:01.407Z,26.27
2023-01-19T19:20:31.302Z,28.33
2023-01-19T19:23:01.587Z,32.50
2023-01-19T19:25:31.459Z,29.60
2023-01-19T19:28:01.672Z,30.13
2023-01-19T19:30:33.023Z,33.63
2023-01-19T19:33:05.582Z,31.50
2023-01-19T19:35:35.519Z,27.73
2023-01-19T19:38:08.033Z,32.97
2023-01-19T19:40:37.978Z,26.43
2023-01-19T19:43:08.935Z,29.47
2023-01-19T19:45:39.169Z,27.13
2023-01-19T19:48:11.768Z,26.10
2023-01-19T19:50:41.626Z,23.07
2023-01-19T19:53:14.503Z,29.37
2023-01-19T19:55:47.078Z,24.10
2023-01-19T19:58:17.233Z,27.83
2023-01-19T20:00:51.758Z,28.57
2023-01-19T20:03:24.582Z,27.27
2023-01-19T20:05:54.462Z,22.40
2023-01-19T20:08:24.541Z,22.43
2023-01-19T20:10:54.559Z,28.30
2023-01-19T20:13:25.576Z,21.97
2023-01-19T20:15:56.017Z,25.00
2023-01-19T20:18:28.784Z,24.27
2023-01-19T20:20:58.752Z,24.77
2023-01-19T20:23:30.829Z,22.60
2023-01-19T20:26:00.885Z,25.13
2023-01-19T20:28:30.606Z,27.80
2023-01-19T20:31:11.453Z,26.13
2023-01-19T20:33:46.282Z,25.47
2023-01-19T20:36:17.767Z,27.27
2023-01-19T20:38:50.336Z,26.37
2023-01-19T20:41:21.162Z,25.23
2023-01-19T20:43:51.349Z,24.50
2023-01-19T20:46:21.520Z,29.80
2023-01-19T20:48:54.874Z,22.07
2023-01-19T20:51:26.927Z,21.70
2023-01-19T20:53:56.957Z,26.67
2023-01-19T20:56:26.901Z,28.27
2023-01-19T20:58:58.950Z,26.83
2023-01-19T21:01:31.978Z,26.33
2023-01-19T21:04:04.468Z,26.40
2023-01-19T21:06:36.514Z,28.30
2023-01-19T21:09:07.090Z,21.23
2023-01-19T21:11:40.858Z,21.93
2023-01-19T21:14:14.030Z,24.60
2023-01-19T21:16:44.371Z,21.97
2023-01-19T21:19:17.997Z,26.67
2023-01-19T21:21:47.729Z,19.00
2023-01-19T21:24:17.560Z,25.10
2023-01-19T21:26:47.325Z,22.73
2023-01-19T21:29:21.589Z,21.60
2023-01-19T21:31:51.407Z,28.67
2023-01-19T21:34:31.204Z,25.37
2023-01-19T21:37:03.848Z,22.30
2023-01-19T21:39:33.628Z,29.60
2023-01-19T21:42:03.591Z,19.97
2023-01-19T21:44:33.427Z,22.70
2023-01-19T21:47:03.200Z,27.57
2023-01-19T21:49:35.717Z,22.17
2023-01-19T21:52:05.573Z,20.07
2023-01-19T21:54:37.893Z,21.67
2023-01-19T21:57:09.623Z,25.57
2023-01-19T21:59:39.465Z,23.80
2023-01-19T22:02:09.677Z,25.57
2023-01-19T22:04:42.352Z,21.03
2023-01-19T22:07:14.197Z,23.80
2023-01-19T22:09:44.006Z,31.10
2023-01-19T22:12:13.714Z,24.13
2023-01-19T22:14:46.918Z,27.77
2023-01-19T22:17:17.339Z,24.93
2023-01-19T22:19:51.800Z,32.57
2023-01-19T22:22:21.582Z,35.03
2023-01-19T22:24:55.869Z,27.13
2023-01-19T22:27:25.626Z,26.00
2023-01-19T22:29:55.537Z,32.47
2023-01-19T22:32:25.295Z,36.80
2023-01-19T22:34:58.923Z,32.40
2023-01-19T22:37:28.674Z,30.80
2023-01-19T22:39:58.441Z,28.00
2023-01-19T22:42:28.618Z,29.07
2023-01-19T22:44:58.542Z,28.37
2023-01-19T22:47:31.032Z,31.83
2023-01-19T22:50:03.791Z,29.97
2023-01-19T22:52:33.583Z,23.30
2023-01-19T22:55:08.357Z,29.40
2023-01-19T22:57:38.453Z,31.67
2023-01-19T23:00:13.328Z,24.63
2023-01-19T23:02:43.113Z,26.00
2023-01-19T23:05:16.321Z,31.50
2023-01-19T23:07:46.465Z,29.47
2023-01-19T23:10:16.546Z,27.50
2023-01-19T23:12:48.756Z,23.53
2023-01-19T23:15:18.678Z,29.53
2023-01-19T23:17:52.977Z,31.27
2023-01-19T23:20:30.760Z,29.40
2023-01-19T23:23:00.643Z,32.23
2023-01-19T23:25:30.403Z,30.37
2023-01-19T23:28:01.000Z,30.97
2023-01-19T23:30:30.836Z,27.23
2023-01-19T23:33:01.026Z,32.40
2023-01-19T23:35:33.710Z,31.93
2023-01-19T23:38:03.764Z,36.57
2023-01-19T23:40:33.546Z,31.70
2023-01-19T23:43:03.437Z,29.03
2023-01-19T23:45:37.225Z,38.70
2023-01-19T23:48:07.589Z,36.50
2023-01-19T23:50:42.584Z,37.50
2023-01-19T23:53:14.757Z,35.47
2023-01-19T23:55:44.852Z,32.27
2023-01-19T23:58:14.635Z,31.33
